AIC113 VOTV-VOTV
Flight info
| Callsign | AIC113 |
|---|---|
| Flight time | 0h 20m |
| Altitude | 11000 |
| Route | TD323 DCT RAMPU DCT MOREX DCT FORET DCT PARIT DCT CI32 |
| Aircraft | B748/H-SDE3FGHIM1M2RWXY/LB1 |
Departure
| Time | 2026-04-22 18:52 |
|---|---|
| Airport | Thiruvananthapuram International Airport (VOTV) |
Arrival
| Time | 2026-04-22 19:12 |
|---|---|
| Airport | Thiruvananthapuram International Airport (VOTV) |
| Time | Latitude | Longitude | Altitude | Speed | Heading |
|---|---|---|---|---|---|
| 2026-04-22 18:38 | 8.47854 | 76.92091 | 40 ft | 0 kts | 185° |
| 2026-04-22 18:45 | 8.47830 | 76.92093 | 39 ft | 7 kts | 170° |
| 2026-04-22 18:45 | 8.47784 | 76.92103 | 39 ft | 10 kts | 161° |
| 2026-04-22 18:45 | 8.47721 | 76.92188 | 40 ft | 20 kts | 99° |
| 2026-04-22 18:46 | 8.47705 | 76.92318 | 41 ft | 12 kts | 97° |
| 2026-04-22 18:46 | 8.47696 | 76.92390 | 41 ft | 8 kts | 98° |
| 2026-04-22 18:46 | 8.47694 | 76.92404 | 42 ft | 0 kts | 98° |
| 2026-04-22 18:47 | 8.47693 | 76.92408 | 42 ft | 1 kts | 98° |
| 2026-04-22 18:47 | 8.47692 | 76.92414 | 42 ft | 4 kts | 99° |
| 2026-04-22 18:47 | 8.47691 | 76.92425 | 42 ft | 0 kts | 99° |
| 2026-04-22 18:48 | 8.47689 | 76.92433 | 42 ft | 3 kts | 99° |
| 2026-04-22 18:48 | 8.47689 | 76.92435 | 42 ft | 0 kts | 99° |
| 2026-04-22 18:48 | 8.47685 | 76.92441 | 41 ft | 6 kts | 118° |
| 2026-04-22 18:49 | 8.47644 | 76.92477 | 41 ft | 11 kts | 136° |
| 2026-04-22 18:49 | 8.47614 | 76.92519 | 41 ft | 7 kts | 86° |
| 2026-04-22 18:49 | 8.47675 | 76.92524 | 41 ft | 16 kts | 312° |
| 2026-04-22 18:49 | 8.47687 | 76.92482 | 41 ft | 1 kts | 283° |
| 2026-04-22 18:50 | 8.47688 | 76.92480 | 40 ft | 0 kts | 291° |
| 2026-04-22 18:50 | 8.47689 | 76.92480 | 40 ft | 1 kts | 293° |
| 2026-04-22 18:50 | 8.47679 | 76.92500 | 41 ft | 6 kts | 298° |
| 2026-04-22 18:50 | 8.47655 | 76.92536 | 41 ft | 8 kts | 316° |
| 2026-04-22 18:51 | 8.47643 | 76.92547 | 41 ft | 1 kts | 316° |
| 2026-04-22 18:51 | 8.47773 | 76.92424 | 42 ft | 66 kts | 317° |
| 2026-04-22 18:51 | 8.48324 | 76.91889 | 40 ft | 151 kts | 316° |
| 2026-04-22 18:51 | 8.49275 | 76.90990 | 215 ft | 216 kts | 318° |
| 2026-04-22 18:52 | 8.50440 | 76.89944 | 1173 ft | 214 kts | 327° |
| 2026-04-22 18:52 | 8.51772 | 76.89383 | 1919 ft | 211 kts | 344° |
| 2026-04-22 18:52 | 8.53193 | 76.88800 | 2682 ft | 247 kts | 333° |
| 2026-04-22 18:52 | 8.54790 | 76.87850 | 3273 ft | 289 kts | 327° |
| 2026-04-22 18:53 | 8.56518 | 76.86601 | 4256 ft | 310 kts | 321° |
| 2026-04-22 18:53 | 8.57931 | 76.85332 | 6530 ft | 227 kts | 326° |
| 2026-04-22 18:53 | 8.59127 | 76.84603 | 6856 ft | 195 kts | 334° |
| 2026-04-22 18:53 | 8.60426 | 76.83984 | 5915 ft | 220 kts | 342° |
| 2026-04-22 18:54 | 8.61834 | 76.83799 | 5850 ft | 180 kts | 21° |
| 2026-04-22 18:54 | 8.62777 | 76.84425 | 5520 ft | 161 kts | 52° |
| 2026-04-22 18:54 | 8.63412 | 76.85440 | 4863 ft | 186 kts | 59° |
| 2026-04-22 18:54 | 8.64141 | 76.86581 | 3925 ft | 200 kts | 56° |
| 2026-04-22 18:55 | 8.65301 | 76.87356 | 2993 ft | 202 kts | 16° |
| 2026-04-22 18:55 | 8.66669 | 76.87488 | 3390 ft | 200 kts | 358° |
| 2026-04-22 18:55 | 8.67849 | 76.86869 | 3591 ft | 185 kts | 317° |
| 2026-04-22 18:55 | 8.68762 | 76.85987 | 3138 ft | 178 kts | 318° |
| 2026-04-22 18:56 | 8.69890 | 76.85362 | 2126 ft | 218 kts | 323° |
| 2026-04-22 18:56 | 8.70467 | 76.83937 | 1338 ft | 220 kts | 268° |
| 2026-04-22 18:56 | 8.70251 | 76.82596 | 1456 ft | 169 kts | 253° |
| 2026-04-22 18:56 | 8.69797 | 76.81598 | 1200 ft | 155 kts | 243° |
| 2026-04-22 18:57 | 8.69317 | 76.80523 | 1444 ft | 163 kts | 242° |
| 2026-04-22 18:57 | 8.68756 | 76.79603 | 1569 ft | 173 kts | 232° |
| 2026-04-22 18:57 | 8.67867 | 76.78712 | 2281 ft | 165 kts | 218° |
| 2026-04-22 18:57 | 8.66811 | 76.77995 | 2382 ft | 211 kts | 199° |
| 2026-04-22 18:58 | 8.65285 | 76.77946 | 2721 ft | 219 kts | 176° |
| 2026-04-22 18:58 | 8.63935 | 76.78039 | 3490 ft | 163 kts | 176° |
| 2026-04-22 18:58 | 8.63184 | 76.78135 | 3634 ft | 165 kts | 170° |
| 2026-04-22 18:58 | 8.62030 | 76.78351 | 3830 ft | 174 kts | 169° |
| 2026-04-22 18:59 | 8.60782 | 76.78609 | 4185 ft | 193 kts | 167° |
| 2026-04-22 18:59 | 8.59478 | 76.78889 | 4881 ft | 192 kts | 166° |
| 2026-04-22 18:59 | 8.58102 | 76.79220 | 5189 ft | 208 kts | 159° |
| 2026-04-22 18:59 | 8.56744 | 76.79734 | 5701 ft | 211 kts | 157° |
| 2026-04-22 19:00 | 8.55479 | 76.80207 | 5713 ft | 178 kts | 154° |
| 2026-04-22 19:00 | 8.54355 | 76.80644 | 5248 ft | 174 kts | 158° |
| 2026-04-22 19:00 | 8.53216 | 76.81041 | 4709 ft | 175 kts | 158° |
| 2026-04-22 19:00 | 8.52042 | 76.81451 | 4180 ft | 173 kts | 161° |
| 2026-04-22 19:01 | 8.50891 | 76.81769 | 3766 ft | 167 kts | 168° |
| 2026-04-22 19:01 | 8.49748 | 76.81921 | 3400 ft | 182 kts | 174° |
| 2026-04-22 19:01 | 8.48316 | 76.82069 | 3514 ft | 222 kts | 163° |
| 2026-04-22 19:01 | 8.46916 | 76.82839 | 4108 ft | 244 kts | 146° |
| 2026-04-22 19:02 | 8.45373 | 76.83414 | 4298 ft | 227 kts | 167° |
| 2026-04-22 19:02 | 8.43830 | 76.83678 | 3966 ft | 231 kts | 171° |
| 2026-04-22 19:02 | 8.42242 | 76.84145 | 3244 ft | 250 kts | 145° |
| 2026-04-22 19:02 | 8.40592 | 76.85151 | 2907 ft | 314 kts | 149° |
| 2026-04-22 19:03 | 8.38549 | 76.86230 | 3856 ft | 340 kts | 158° |
| 2026-04-22 19:03 | 8.36344 | 76.86996 | 4656 ft | 319 kts | 162° |
| 2026-04-22 19:03 | 8.34299 | 76.87590 | 4743 ft | 297 kts | 162° |
| 2026-04-22 19:03 | 8.32414 | 76.88186 | 4718 ft | 273 kts | 162° |
| 2026-04-22 19:04 | 8.30774 | 76.88636 | 5166 ft | 225 kts | 160° |
| 2026-04-22 19:04 | 8.29399 | 76.89164 | 5102 ft | 200 kts | 157° |
| 2026-04-22 19:04 | 8.28438 | 76.89984 | 4747 ft | 177 kts | 116° |
| 2026-04-22 19:04 | 8.28079 | 76.91120 | 4612 ft | 160 kts | 101° |
| 2026-04-22 19:05 | 8.27896 | 76.92196 | 4263 ft | 159 kts | 95° |
| 2026-04-22 19:05 | 8.27838 | 76.93406 | 4232 ft | 176 kts | 90° |
| 2026-04-22 19:05 | 8.27852 | 76.94757 | 4051 ft | 202 kts | 88° |
| 2026-04-22 19:05 | 8.27824 | 76.96081 | 3841 ft | 176 kts | 92° |
| 2026-04-22 19:06 | 8.27761 | 76.97244 | 3679 ft | 152 kts | 95° |
| 2026-04-22 19:06 | 8.27819 | 76.98374 | 3532 ft | 173 kts | 81° |
| 2026-04-22 19:06 | 8.28074 | 76.99508 | 3867 ft | 154 kts | 70° |
| 2026-04-22 19:07 | 8.29131 | 77.01405 | 4146 ft | 149 kts | 56° |
| 2026-04-22 19:07 | 8.29685 | 77.02245 | 4118 ft | 150 kts | 54° |
| 2026-04-22 19:07 | 8.30393 | 77.03042 | 4296 ft | 157 kts | 36° |
| 2026-04-22 19:07 | 8.31404 | 77.03619 | 4417 ft | 188 kts | 23° |
| 2026-04-22 19:08 | 8.32792 | 77.03953 | 4393 ft | 222 kts | 9° |
| 2026-04-22 19:08 | 8.34185 | 77.03839 | 4290 ft | 193 kts | 345° |
| 2026-04-22 19:08 | 8.35448 | 77.03430 | 3782 ft | 188 kts | 340° |
| 2026-04-22 19:08 | 8.36606 | 77.02872 | 3243 ft | 183 kts | 331° |
| 2026-04-22 19:09 | 8.37689 | 77.02200 | 2670 ft | 180 kts | 320° |
| 2026-04-22 19:09 | 8.38631 | 77.01418 | 2210 ft | 173 kts | 315° |
| 2026-04-22 19:09 | 8.39408 | 77.00562 | 1819 ft | 160 kts | 316° |
| 2026-04-22 19:09 | 8.40297 | 76.99752 | 1602 ft | 179 kts | 315° |
| 2026-04-22 19:10 | 8.41080 | 76.98883 | 1487 ft | 159 kts | 308° |
| 2026-04-22 19:10 | 8.41811 | 76.98097 | 1125 ft | 151 kts | 317° |
| 2026-04-22 19:10 | 8.42639 | 76.97370 | 883 ft | 151 kts | 320° |
| 2026-04-22 19:10 | 8.43383 | 76.96665 | 791 ft | 145 kts | 317° |
| 2026-04-22 19:11 | 8.44195 | 76.95911 | 661 ft | 168 kts | 316° |
| 2026-04-22 19:11 | 8.45011 | 76.95106 | 466 ft | 158 kts | 316° |
| 2026-04-22 19:11 | 8.45796 | 76.94347 | 322 ft | 163 kts | 316° |
| 2026-04-22 19:11 | 8.46640 | 76.93535 | 154 ft | 162 kts | 316° |
| 2026-04-22 19:12 | 8.47195 | 76.92987 | 47 ft | 165 kts | 316° |
| 2026-04-22 19:12 | 8.47876 | 76.92321 | 42 ft | 129 kts | 316° |
| 2026-04-22 19:12 | 8.48333 | 76.91880 | 39 ft | 27 kts | 326° |
| 2026-04-22 19:13 | 8.48386 | 76.91896 | 39 ft | 3 kts | 50° |
| 2026-04-22 19:13 | 8.48400 | 76.91898 | 39 ft | 1 kts | 359° |
| 2026-04-22 19:13 | 8.48403 | 76.91896 | 39 ft | 0 kts | 346° |
| 2026-04-22 19:13 | 8.48406 | 76.91894 | 39 ft | 1 kts | 332° |
| 2026-04-22 19:14 | 8.48407 | 76.91893 | 39 ft | 0 kts | 327° |
| 2026-04-22 19:14 | 8.48424 | 76.91864 | 39 ft | 9 kts | 290° |
| 2026-04-22 19:14 | 8.48515 | 76.91699 | 41 ft | 64 kts | 315° |
| 2026-04-22 19:14 | 8.49026 | 76.91200 | 38 ft | 136 kts | 316° |
| 2026-04-22 19:15 | 8.49533 | 76.90699 | 92 ft | 167 kts | 313° |
| 2026-04-22 19:15 | 8.49757 | 76.89167 | 483 ft | 197 kts | 232° |
| 2026-04-22 19:15 | 8.48375 | 76.88830 | 275 ft | 239 kts | 160° |
| 2026-04-22 19:15 | 8.47050 | 76.89820 | 97 ft | 234 kts | 132° |
| 2026-04-22 19:16 | 8.46104 | 76.91056 | 151 ft | 221 kts | 123° |
| 2026-04-22 19:16 | 8.45562 | 76.91805 | 371 ft | 201 kts | 126° |
| 2026-04-22 19:16 | 8.44590 | 76.92944 | 557 ft | 231 kts | 134° |
| 2026-04-22 19:16 | 8.43333 | 76.94104 | 1567 ft | 231 kts | 137° |
| 2026-04-22 19:17 | 8.42343 | 76.95009 | 2721 ft | 167 kts | 139° |
| 2026-04-22 19:17 | 8.41481 | 76.95862 | 2664 ft | 179 kts | 135° |
| 2026-04-22 19:17 | 8.40636 | 76.96829 | 2192 ft | 195 kts | 129° |
| 2026-04-22 19:17 | 8.39799 | 76.97894 | 2066 ft | 185 kts | 132° |
| 2026-04-22 19:18 | 8.39039 | 76.98886 | 1816 ft | 177 kts | 106° |
| 2026-04-22 19:18 | 8.39389 | 76.99953 | 1388 ft | 165 kts | 31° |
| 2026-04-22 19:18 | 8.40430 | 76.99980 | 504 ft | 170 kts | 315° |
| 2026-04-22 19:18 | 8.41148 | 76.99195 | 713 ft | 144 kts | 310° |
| 2026-04-22 19:19 | 8.41763 | 76.98395 | 983 ft | 146 kts | 312° |
| 2026-04-22 19:19 | 8.42471 | 76.97652 | 1006 ft | 148 kts | 315° |
| 2026-04-22 19:19 | 8.43193 | 76.96906 | 889 ft | 148 kts | 315° |
| 2026-04-22 19:19 | 8.43923 | 76.96176 | 736 ft | 147 kts | 315° |
| 2026-04-22 19:20 | 8.44656 | 76.95458 | 658 ft | 146 kts | 316° |
| 2026-04-22 19:20 | 8.45388 | 76.94747 | 566 ft | 146 kts | 316° |
| 2026-04-22 19:20 | 8.46121 | 76.94034 | 347 ft | 146 kts | 317° |
| 2026-04-22 19:20 | 8.46846 | 76.93324 | 152 ft | 145 kts | 316° |
| 2026-04-22 19:21 | 8.47567 | 76.92624 | 42 ft | 143 kts | 316° |
| 2026-04-22 19:21 | 8.48251 | 76.91957 | 41 ft | 143 kts | 316° |
| 2026-04-22 19:21 | 8.48945 | 76.91265 | 175 ft | 138 kts | 314° |
| 2026-04-22 19:21 | 8.49126 | 76.91071 | 294 ft | 137 kts | 312° |